sensor_id;sensor_type;location;lat;lon;timestamp;temperature;humidity
25192;DHT22;13143;50.924;5.320;2023-03-01T00:02:19;2.90;99.90
25192;DHT22;13143;50.924;5.320;2023-03-01T00:04:45;2.80;99.90
25192;DHT22;13143;50.924;5.320;2023-03-01T00:07:10;2.80;99.90
25192;DHT22;13143;50.924;5.320;2023-03-01T00:09:36;2.80;99.90
25192;DHT22;13143;50.924;5.320;2023-03-01T00:12:03;2.80;99.90
25192;DHT22;13143;50.924;5.320;2023-03-01T00:14:29;2.80;99.90
25192;DHT22;13143;50.924;5.320;2023-03-01T00:16:55;2.80;99.90
25192;DHT22;13143;50.924;5.320;2023-03-01T00:19:21;2.80;99.90
25192;DHT22;13143;50.924;5.320;2023-03-01T00:21:47;2.70;99.90
25192;DHT22;13143;50.924;5.320;2023-03-01T00:24:13;2.70;99.90
25192;DHT22;13143;50.924;5.320;2023-03-01T00:26:39;2.70;99.90
25192;DHT22;13143;50.924;5.320;2023-03-01T00:29:05;2.70;99.90
25192;DHT22;13143;50.924;5.320;2023-03-01T00:31:32;2.70;99.90
25192;DHT22;13143;50.924;5.320;2023-03-01T00:34:00;2.70;99.90
25192;DHT22;13143;50.924;5.320;2023-03-01T00:36:28;2.70;99.90
25192;DHT22;13143;50.924;5.320;2023-03-01T00:38:55;2.70;99.90
25192;DHT22;13143;50.924;5.320;2023-03-01T00:41:21;2.60;99.90
25192;DHT22;13143;50.924;5.320;2023-03-01T00:43:52;2.70;99.90
25192;DHT22;13143;50.924;5.320;2023-03-01T00:46:20;2.70;99.90
25192;DHT22;13143;50.924;5.320;2023-03-01T00:48:47;2.60;99.90
25192;DHT22;13143;50.924;5.320;2023-03-01T00:51:24;2.70;99.90
25192;DHT22;13143;50.924;5.320;2023-03-01T00:53:51;2.60;99.90
25192;DHT22;13143;50.924;5.320;2023-03-01T00:56:17;2.60;99.90
25192;DHT22;13143;50.924;5.320;2023-03-01T00:58:43;2.60;99.90
25192;DHT22;13143;50.924;5.320;2023-03-01T01:01:15;2.60;99.90
25192;DHT22;13143;50.924;5.320;2023-03-01T01:03:50;2.60;99.90
25192;DHT22;13143;50.924;5.320;2023-03-01T01:06:28;2.60;99.90
25192;DHT22;13143;50.924;5.320;2023-03-01T01:08:54;2.60;99.90
25192;DHT22;13143;50.924;5.320;2023-03-01T01:11:21;2.50;99.90
25192;DHT22;13143;50.924;5.320;2023-03-01T01:13:48;2.50;99.90
25192;DHT22;13143;50.924;5.320;2023-03-01T01:16:15;2.50;99.90
25192;DHT22;13143;50.924;5.320;2023-03-01T01:18:41;2.50;99.90
25192;DHT22;13143;50.924;5.320;2023-03-01T01:21:09;2.50;99.90
25192;DHT22;13143;50.924;5.320;2023-03-01T01:23:37;2.50;99.90
25192;DHT22;13143;50.924;5.320;2023-03-01T01:26:11;2.50;99.90
25192;DHT22;13143;50.924;5.320;2023-03-01T01:28:37;2.40;99.90
25192;DHT22;13143;50.924;5.320;2023-03-01T01:31:04;2.40;99.90
25192;DHT22;13143;50.924;5.320;2023-03-01T01:33:30;2.50;99.90
25192;DHT22;13143;50.924;5.320;2023-03-01T01:35:55;2.40;99.90
25192;DHT22;13143;50.924;5.320;2023-03-01T01:38:21;2.40;99.90
25192;DHT22;13143;50.924;5.320;2023-03-01T01:40:48;2.40;99.90
25192;DHT22;13143;50.924;5.320;2023-03-01T01:43:27;2.40;99.90
25192;DHT22;13143;50.924;5.320;2023-03-01T01:45:56;2.30;99.90
25192;DHT22;13143;50.924;5.320;2023-03-01T01:48:30;2.30;99.90
25192;DHT22;13143;50.924;5.320;2023-03-01T01:51:06;2.30;99.90
25192;DHT22;13143;50.924;5.320;2023-03-01T01:53:34;2.30;99.90
25192;DHT22;13143;50.924;5.320;2023-03-01T01:56:01;2.40;99.90
25192;DHT22;13143;50.924;5.320;2023-03-01T01:58:29;2.30;99.90
25192;DHT22;13143;50.924;5.320;2023-03-01T02:00:55;2.30;99.90
25192;DHT22;13143;50.924;5.320;2023-03-01T02:03:27;2.20;99.90
25192;DHT22;13143;50.924;5.320;2023-03-01T02:06:36;2.20;99.90
25192;DHT22;13143;50.924;5.320;2023-03-01T02:09:05;2.20;99.90
25192;DHT22;13143;50.924;5.320;2023-03-01T02:11:33;2.20;99.90
25192;DHT22;13143;50.924;5.320;2023-03-01T02:13:59;2.20;99.90
25192;DHT22;13143;50.924;5.320;2023-03-01T02:16:26;2.20;99.90
25192;DHT22;13143;50.924;5.320;2023-03-01T02:18:52;2.20;99.90
25192;DHT22;13143;50.924;5.320;2023-03-01T02:21:37;2.20;99.90
25192;DHT22;13143;50.924;5.320;2023-03-01T02:27:09;2.10;99.90
25192;DHT22;13143;50.924;5.320;2023-03-01T02:29:35;2.10;99.90
25192;DHT22;13143;50.924;5.320;2023-03-01T02:32:02;2.10;99.90
25192;DHT22;13143;50.924;5.320;2023-03-01T02:34:31;2.10;99.90
25192;DHT22;13143;50.924;5.320;2023-03-01T02:37:02;2.10;99.90
25192;DHT22;13143;50.924;5.320;2023-03-01T02:39:59;2.10;99.90
25192;DHT22;13143;50.924;5.320;2023-03-01T02:42:35;2.10;99.90
25192;DHT22;13143;50.924;5.320;2023-03-01T02:45:02;2.10;99.90
25192;DHT22;13143;50.924;5.320;2023-03-01T02:47:28;2.10;99.90
25192;DHT22;13143;50.924;5.320;2023-03-01T02:49:54;2.00;99.90
25192;DHT22;13143;50.924;5.320;2023-03-01T02:52:51;2.00;99.90
25192;DHT22;13143;50.924;5.320;2023-03-01T02:55:20;2.00;99.90
25192;DHT22;13143;50.924;5.320;2023-03-01T02:57:47;2.00;99.90
25192;DHT22;13143;50.924;5.320;2023-03-01T03:00:19;2.00;99.90
25192;DHT22;13143;50.924;5.320;2023-03-01T03:02:50;1.90;99.90
25192;DHT22;13143;50.924;5.320;2023-03-01T03:05:20;1.90;99.90
25192;DHT22;13143;50.924;5.320;2023-03-01T03:07:48;2.00;99.90
25192;DHT22;13143;50.924;5.320;2023-03-01T03:10:17;1.90;99.90
25192;DHT22;13143;50.924;5.320;2023-03-01T03:12:58;1.90;99.90
25192;DHT22;13143;50.924;5.320;2023-03-01T03:15:25;1.90;99.90
25192;DHT22;13143;50.924;5.320;2023-03-01T03:17:52;1.90;99.90
25192;DHT22;13143;50.924;5.320;2023-03-01T03:20:20;1.80;99.90
25192;DHT22;13143;50.924;5.320;2023-03-01T03:22:47;1.90;99.90
25192;DHT22;13143;50.924;5.320;2023-03-01T03:25:13;1.80;99.90
25192;DHT22;13143;50.924;5.320;2023-03-01T03:27:40;1.80;99.90
25192;DHT22;13143;50.924;5.320;2023-03-01T03:30:08;1.80;99.90
25192;DHT22;13143;50.924;5.320;2023-03-01T03:32:38;1.80;99.90
25192;DHT22;13143;50.924;5.320;2023-03-01T03:35:04;1.70;99.90
25192;DHT22;13143;50.924;5.320;2023-03-01T03:37:39;1.70;99.90
25192;DHT22;13143;50.924;5.320;2023-03-01T03:40:24;1.70;99.90
25192;DHT22;13143;50.924;5.320;2023-03-01T03:42:50;1.70;99.90
25192;DHT22;13143;50.924;5.320;2023-03-01T03:45:16;1.70;99.90
25192;DHT22;13143;50.924;5.320;2023-03-01T03:47:42;1.60;99.90
25192;DHT22;13143;50.924;5.320;2023-03-01T03:50:10;1.60;99.90
25192;DHT22;13143;50.924;5.320;2023-03-01T03:52:36;1.60;99.90
25192;DHT22;13143;50.924;5.320;2023-03-01T03:55:02;1.60;99.90
25192;DHT22;13143;50.924;5.320;2023-03-01T03:57:27;1.60;99.90
25192;DHT22;13143;50.924;5.320;2023-03-01T03:59:53;1.50;99.90
25192;DHT22;13143;50.924;5.320;2023-03-01T04:02:19;1.50;99.90
25192;DHT22;13143;50.924;5.320;2023-03-01T04:04:48;1.60;99.90
25192;DHT22;13143;50.924;5.320;2023-03-01T04:07:18;1.50;99.90
25192;DHT22;13143;50.924;5.320;2023-03-01T04:09:44;1.50;99.90
25192;DHT22;13143;50.924;5.320;2023-03-01T04:12:10;1.40;99.90
25192;DHT22;13143;50.924;5.320;2023-03-01T04:14:36;1.40;99.90
25192;DHT22;13143;50.924;5.320;2023-03-01T04:17:02;1.40;99.90
25192;DHT22;13143;50.924;5.320;2023-03-01T04:19:33;1.40;99.90
25192;DHT22;13143;50.924;5.320;2023-03-01T04:22:04;1.30;99.90
25192;DHT22;13143;50.924;5.320;2023-03-01T04:24:35;1.30;99.90
25192;DHT22;13143;50.924;5.320;2023-03-01T04:27:01;1.30;99.90
25192;DHT22;13143;50.924;5.320;2023-03-01T04:29:27;1.30;99.90
25192;DHT22;13143;50.924;5.320;2023-03-01T04:31:52;1.30;99.90
25192;DHT22;13143;50.924;5.320;2023-03-01T04:34:18;1.30;99.90
25192;DHT22;13143;50.924;5.320;2023-03-01T04:36:44;1.20;99.90
25192;DHT22;13143;50.924;5.320;2023-03-01T04:39:10;1.20;99.90
25192;DHT22;13143;50.924;5.320;2023-03-01T04:41:40;1.20;99.90
25192;DHT22;13143;50.924;5.320;2023-03-01T04:44:07;1.20;99.90
25192;DHT22;13143;50.924;5.320;2023-03-01T04:46:35;1.20;99.90
25192;DHT22;13143;50.924;5.320;2023-03-01T04:49:02;1.20;99.90
25192;DHT22;13143;50.924;5.320;2023-03-01T04:51:28;1.10;99.90
25192;DHT22;13143;50.924;5.320;2023-03-01T04:53:53;1.10;99.90
25192;DHT22;13143;50.924;5.320;2023-03-01T04:56:19;1.10;99.90
25192;DHT22;13143;50.924;5.320;2023-03-01T04:58:46;1.10;99.90
25192;DHT22;13143;50.924;5.320;2023-03-01T05:01:13;1.10;99.90
25192;DHT22;13143;50.924;5.320;2023-03-01T05:03:43;1.10;99.90
25192;DHT22;13143;50.924;5.320;2023-03-01T05:06:10;1.10;99.90
25192;DHT22;13143;50.924;5.320;2023-03-01T05:08:40;1.10;99.90
25192;DHT22;13143;50.924;5.320;2023-03-01T05:11:06;1.10;99.90
25192;DHT22;13143;50.924;5.320;2023-03-01T05:13:35;1.10;99.90
25192;DHT22;13143;50.924;5.320;2023-03-01T05:16:01;1.10;99.90
25192;DHT22;13143;50.924;5.320;2023-03-01T05:18:29;1.00;99.90
25192;DHT22;13143;50.924;5.320;2023-03-01T05:21:01;1.00;99.90
25192;DHT22;13143;50.924;5.320;2023-03-01T05:23:27;1.00;99.90
25192;DHT22;13143;50.924;5.320;2023-03-01T05:25:52;1.00;99.90
25192;DHT22;13143;50.924;5.320;2023-03-01T05:28:19;1.00;99.90
25192;DHT22;13143;50.924;5.320;2023-03-01T05:30:45;1.00;99.90
25192;DHT22;13143;50.924;5.320;2023-03-01T05:33:11;0.90;99.90
25192;DHT22;13143;50.924;5.320;2023-03-01T05:35:41;0.90;99.90
25192;DHT22;13143;50.924;5.320;2023-03-01T05:38:08;0.90;99.90
25192;DHT22;13143;50.924;5.320;2023-03-01T05:40:34;0.90;99.90
25192;DHT22;13143;50.924;5.320;2023-03-01T05:43:00;0.90;99.90
25192;DHT22;13143;50.924;5.320;2023-03-01T05:45:27;0.90;99.90
25192;DHT22;13143;50.924;5.320;2023-03-01T05:47:53;0.80;99.90
25192;DHT22;13143;50.924;5.320;2023-03-01T05:50:23;0.80;99.90
25192;DHT22;13143;50.924;5.320;2023-03-01T05:53:06;0.80;99.90
25192;DHT22;13143;50.924;5.320;2023-03-01T05:55:34;0.80;99.90
25192;DHT22;13143;50.924;5.320;2023-03-01T05:58:05;0.80;99.90
25192;DHT22;13143;50.924;5.320;2023-03-01T06:00:32;0.80;99.90
25192;DHT22;13143;50.924;5.320;2023-03-01T06:02:59;0.80;99.90
25192;DHT22;13143;50.924;5.320;2023-03-01T06:05:25;0.80;99.90
25192;DHT22;13143;50.924;5.320;2023-03-01T06:07:51;0.70;99.90
25192;DHT22;13143;50.924;5.320;2023-03-01T06:10:19;0.70;99.90
25192;DHT22;13143;50.924;5.320;2023-03-01T06:12:45;0.70;99.90
25192;DHT22;13143;50.924;5.320;2023-03-01T06:15:12;0.70;99.90
25192;DHT22;13143;50.924;5.320;2023-03-01T06:17:40;0.70;99.90
25192;DHT22;13143;50.924;5.320;2023-03-01T06:20:11;0.70;99.90
25192;DHT22;13143;50.924;5.320;2023-03-01T06:22:38;0.60;99.90
25192;DHT22;13143;50.924;5.320;2023-03-01T06:25:05;0.60;99.90
25192;DHT22;13143;50.924;5.320;2023-03-01T06:27:30;0.60;99.90
25192;DHT22;13143;50.924;5.320;2023-03-01T06:29:56;0.60;99.90
25192;DHT22;13143;50.924;5.320;2023-03-01T06:32:22;0.60;99.90
25192;DHT22;13143;50.924;5.320;2023-03-01T06:34:47;0.50;99.90
25192;DHT22;13143;50.924;5.320;2023-03-01T06:37:13;0.50;99.90
25192;DHT22;13143;50.924;5.320;2023-03-01T06:39:39;0.50;99.90
25192;DHT22;13143;50.924;5.320;2023-03-01T06:42:04;0.50;99.90
25192;DHT22;13143;50.924;5.320;2023-03-01T06:44:30;0.50;99.90
25192;DHT22;13143;50.924;5.320;2023-03-01T06:46:56;0.40;99.90
25192;DHT22;13143;50.924;5.320;2023-03-01T06:49:22;0.40;99.90
25192;DHT22;13143;50.924;5.320;2023-03-01T06:51:47;0.40;99.90
25192;DHT22;13143;50.924;5.320;2023-03-01T06:54:13;0.40;99.90
25192;DHT22;13143;50.924;5.320;2023-03-01T06:56:39;0.40;99.90
25192;DHT22;13143;50.924;5.320;2023-03-01T06:59:05;0.40;99.90
25192;DHT22;13143;50.924;5.320;2023-03-01T07:01:31;0.30;99.90
25192;DHT22;13143;50.924;5.320;2023-03-01T07:03:56;0.30;99.90
25192;DHT22;13143;50.924;5.320;2023-03-01T07:06:23;0.30;99.90
25192;DHT22;13143;50.924;5.320;2023-03-01T07:08:48;0.30;99.90
25192;DHT22;13143;50.924;5.320;2023-03-01T07:11:14;0.30;99.90
25192;DHT22;13143;50.924;5.320;2023-03-01T07:13:40;0.30;99.90
25192;DHT22;13143;50.924;5.320;2023-03-01T07:16:06;0.30;99.90
25192;DHT22;13143;50.924;5.320;2023-03-01T07:18:32;0.30;99.90
25192;DHT22;13143;50.924;5.320;2023-03-01T07:20:58;0.30;99.90
25192;DHT22;13143;50.924;5.320;2023-03-01T07:23:28;0.30;99.90
25192;DHT22;13143;50.924;5.320;2023-03-01T07:25:54;0.30;99.90
25192;DHT22;13143;50.924;5.320;2023-03-01T07:28:22;0.30;99.90
25192;DHT22;13143;50.924;5.320;2023-03-01T07:30:48;0.30;99.90
25192;DHT22;13143;50.924;5.320;2023-03-01T07:33:13;0.30;99.90
25192;DHT22;13143;50.924;5.320;2023-03-01T07:35:39;0.30;99.90
25192;DHT22;13143;50.924;5.320;2023-03-01T07:38:04;0.30;99.90
25192;DHT22;13143;50.924;5.320;2023-03-01T07:40:30;0.30;99.90
25192;DHT22;13143;50.924;5.320;2023-03-01T07:42:57;0.30;99.90
25192;DHT22;13143;50.924;5.320;2023-03-01T07:45:23;0.30;99.90
25192;DHT22;13143;50.924;5.320;2023-03-01T07:47:51;0.30;99.90
25192;DHT22;13143;50.924;5.320;2023-03-01T07:50:17;0.30;99.90
25192;DHT22;13143;50.924;5.320;2023-03-01T07:52:45;0.30;99.90
25192;DHT22;13143;50.924;5.320;2023-03-01T07:55:11;0.40;99.90
25192;DHT22;13143;50.924;5.320;2023-03-01T07:57:36;0.30;99.90
25192;DHT22;13143;50.924;5.320;2023-03-01T08:00:03;0.30;99.90
25192;DHT22;13143;50.924;5.320;2023-03-01T08:02:29;0.30;99.90
25192;DHT22;13143;50.924;5.320;2023-03-01T08:04:54;0.40;99.90
25192;DHT22;13143;50.924;5.320;2023-03-01T08:07:20;0.40;99.90
25192;DHT22;13143;50.924;5.320;2023-03-01T08:09:45;0.40;99.90
25192;DHT22;13143;50.924;5.320;2023-03-01T08:12:11;0.40;99.90
25192;DHT22;13143;50.924;5.320;2023-03-01T08:14:37;0.40;99.90
25192;DHT22;13143;50.924;5.320;2023-03-01T08:17:02;0.40;99.90
25192;DHT22;13143;50.924;5.320;2023-03-01T08:19:28;0.50;99.90
25192;DHT22;13143;50.924;5.320;2023-03-01T08:21:54;0.50;99.90
25192;DHT22;13143;50.924;5.320;2023-03-01T08:24:23;0.50;99.90
25192;DHT22;13143;50.924;5.320;2023-03-01T08:26:49;0.50;99.90
25192;DHT22;13143;50.924;5.320;2023-03-01T08:29:15;0.50;99.90
25192;DHT22;13143;50.924;5.320;2023-03-01T08:31:41;0.60;99.90
25192;DHT22;13143;50.924;5.320;2023-03-01T08:34:09;0.60;99.90
25192;DHT22;13143;50.924;5.320;2023-03-01T08:36:40;0.60;99.90
25192;DHT22;13143;50.924;5.320;2023-03-01T08:39:07;0.60;99.90
25192;DHT22;13143;50.924;5.320;2023-03-01T08:41:33;0.60;99.90
25192;DHT22;13143;50.924;5.320;2023-03-01T08:43:59;0.60;99.90
25192;DHT22;13143;50.924;5.320;2023-03-01T08:46:36;0.70;99.90
25192;DHT22;13143;50.924;5.320;2023-03-01T08:49:06;0.70;99.90
25192;DHT22;13143;50.924;5.320;2023-03-01T08:51:32;0.70;99.90
25192;DHT22;13143;50.924;5.320;2023-03-01T08:54:03;0.80;99.90
25192;DHT22;13143;50.924;5.320;2023-03-01T08:56:29;0.80;99.90
25192;DHT22;13143;50.924;5.320;2023-03-01T08:58:55;0.90;99.90
25192;DHT22;13143;50.924;5.320;2023-03-01T09:01:20;0.90;99.90
25192;DHT22;13143;50.924;5.320;2023-03-01T09:03:46;0.90;99.90
25192;DHT22;13143;50.924;5.320;2023-03-01T09:06:12;0.90;99.90
25192;DHT22;13143;50.924;5.320;2023-03-01T09:08:41;1.00;99.90
25192;DHT22;13143;50.924;5.320;2023-03-01T09:11:09;1.00;99.90
25192;DHT22;13143;50.924;5.320;2023-03-01T09:13:35;1.00;99.90
25192;DHT22;13143;50.924;5.320;2023-03-01T09:16:03;1.10;99.90
25192;DHT22;13143;50.924;5.320;2023-03-01T09:18:30;1.00;99.90
25192;DHT22;13143;50.924;5.320;2023-03-01T09:21:10;1.10;99.90
25192;DHT22;13143;50.924;5.320;2023-03-01T09:23:39;1.10;99.90
25192;DHT22;13143;50.924;5.320;2023-03-01T09:26:07;1.20;99.90
25192;DHT22;13143;50.924;5.320;2023-03-01T09:28:35;1.30;99.90
25192;DHT22;13143;50.924;5.320;2023-03-01T09:31:01;1.30;99.90
25192;DHT22;13143;50.924;5.320;2023-03-01T09:33:29;1.30;99.90
25192;DHT22;13143;50.924;5.320;2023-03-01T09:35:59;1.40;99.90
25192;DHT22;13143;50.924;5.320;2023-03-01T09:38:25;1.40;99.90
25192;DHT22;13143;50.924;5.320;2023-03-01T09:40:51;1.40;99.90
25192;DHT22;13143;50.924;5.320;2023-03-01T09:46:07;1.50;99.90
25192;DHT22;13143;50.924;5.320;2023-03-01T09:48:43;1.50;99.90
25192;DHT22;13143;50.924;5.320;2023-03-01T09:51:19;1.60;99.90
25192;DHT22;13143;50.924;5.320;2023-03-01T09:53:46;1.60;99.90
25192;DHT22;13143;50.924;5.320;2023-03-01T09:56:15;1.70;99.90
25192;DHT22;13143;50.924;5.320;2023-03-01T10:04:45;1.80;99.90
25192;DHT22;13143;50.924;5.320;2023-03-01T10:09:52;1.90;99.90
25192;DHT22;13143;50.924;5.320;2023-03-01T10:12:22;2.00;99.90
25192;DHT22;13143;50.924;5.320;2023-03-01T10:15:10;2.00;99.90
25192;DHT22;13143;50.924;5.320;2023-03-01T10:20:29;2.10;99.90
25192;DHT22;13143;50.924;5.320;2023-03-01T10:22:57;2.10;99.90
25192;DHT22;13143;50.924;5.320;2023-03-01T10:25:48;2.20;99.90
25192;DHT22;13143;50.924;5.320;2023-03-01T10:28:40;2.20;99.90
25192;DHT22;13143;50.924;5.320;2023-03-01T10:31:13;2.30;99.90
25192;DHT22;13143;50.924;5.320;2023-03-01T10:33:41;2.30;99.90
25192;DHT22;13143;50.924;5.320;2023-03-01T10:36:07;2.40;99.90
25192;DHT22;13143;50.924;5.320;2023-03-01T10:38:48;2.40;99.90
25192;DHT22;13143;50.924;5.320;2023-03-01T10:41:14;2.50;99.90
25192;DHT22;13143;50.924;5.320;2023-03-01T10:43:49;2.60;99.90
25192;DHT22;13143;50.924;5.320;2023-03-01T10:46:30;2.60;99.90
25192;DHT22;13143;50.924;5.320;2023-03-01T10:49:07;2.60;99.90
25192;DHT22;13143;50.924;5.320;2023-03-01T10:51:33;2.70;99.90
25192;DHT22;13143;50.924;5.320;2023-03-01T10:53:59;2.70;99.90
25192;DHT22;13143;50.924;5.320;2023-03-01T10:56:24;2.80;99.90
25192;DHT22;13143;50.924;5.320;2023-03-01T10:59:03;2.80;99.90
25192;DHT22;13143;50.924;5.320;2023-03-01T11:01:33;2.90;99.90
25192;DHT22;13143;50.924;5.320;2023-03-01T11:04:18;2.90;99.90
25192;DHT22;13143;50.924;5.320;2023-03-01T11:06:58;2.90;99.90
25192;DHT22;13143;50.924;5.320;2023-03-01T11:09:24;3.00;99.90
25192;DHT22;13143;50.924;5.320;2023-03-01T11:11:57;3.00;99.90
25192;DHT22;13143;50.924;5.320;2023-03-01T11:14:25;3.10;99.90
25192;DHT22;13143;50.924;5.320;2023-03-01T11:17:44;3.10;99.90
25192;DHT22;13143;50.924;5.320;2023-03-01T11:20:17;3.10;99.90
25192;DHT22;13143;50.924;5.320;2023-03-01T11:22:54;3.20;99.90
25192;DHT22;13143;50.924;5.320;2023-03-01T11:25:24;3.20;99.90
25192;DHT22;13143;50.924;5.320;2023-03-01T11:27:52;3.30;99.90
25192;DHT22;13143;50.924;5.320;2023-03-01T11:35:57;3.40;99.90
25192;DHT22;13143;50.924;5.320;2023-03-01T11:38:27;3.50;99.90
25192;DHT22;13143;50.924;5.320;2023-03-01T11:56:38;3.70;99.90
25192;DHT22;13143;50.924;5.320;2023-03-01T12:06:52;3.90;99.90
25192;DHT22;13143;50.924;5.320;2023-03-01T12:15:11;4.10;99.90
25192;DHT22;13143;50.924;5.320;2023-03-01T12:27:24;4.20;99.90
25192;DHT22;13143;50.924;5.320;2023-03-01T12:49:31;4.50;99.90
25192;DHT22;13143;50.924;5.320;2023-03-01T12:51:38;4.50;99.90
25192;DHT22;13143;50.924;5.320;2023-03-01T12:54:16;4.60;99.90
25192;DHT22;13143;50.924;5.320;2023-03-01T12:56:46;4.70;99.90
25192;DHT22;13143;50.924;5.320;2023-03-01T12:59:42;4.70;99.90
25192;DHT22;13143;50.924;5.320;2023-03-01T13:02:32;4.70;99.90
25192;DHT22;13143;50.924;5.320;2023-03-01T13:05:34;4.80;99.90
25192;DHT22;13143;50.924;5.320;2023-03-01T13:10:43;4.80;99.90
25192;DHT22;13143;50.924;5.320;2023-03-01T13:13:14;4.80;99.90
25192;DHT22;13143;50.924;5.320;2023-03-01T13:15:43;4.90;99.90
25192;DHT22;13143;50.924;5.320;2023-03-01T13:26:09;5.00;99.90
25192;DHT22;13143;50.924;5.320;2023-03-01T13:28:45;5.10;99.90
25192;DHT22;13143;50.924;5.320;2023-03-01T13:33:55;5.10;99.90
25192;DHT22;13143;50.924;5.320;2023-03-01T13:47:12;5.30;99.90
25192;DHT22;13143;50.924;5.320;2023-03-01T13:55:30;5.40;99.90
25192;DHT22;13143;50.924;5.320;2023-03-01T13:58:00;5.40;99.90
25192;DHT22;13143;50.924;5.320;2023-03-01T14:00:36;5.50;99.90
25192;DHT22;13143;50.924;5.320;2023-03-01T14:03:08;5.50;99.90
25192;DHT22;13143;50.924;5.320;2023-03-01T14:05:34;5.60;99.90
25192;DHT22;13143;50.924;5.320;2023-03-01T14:08:02;5.60;99.90
25192;DHT22;13143;50.924;5.320;2023-03-01T14:11:08;5.60;99.90
25192;DHT22;13143;50.924;5.320;2023-03-01T14:14:26;5.60;99.90
25192;DHT22;13143;50.924;5.320;2023-03-01T14:17:21;5.70;99.90
25192;DHT22;13143;50.924;5.320;2023-03-01T14:20:09;5.70;99.90
25192;DHT22;13143;50.924;5.320;2023-03-01T14:22:37;5.70;99.90
25192;DHT22;13143;50.924;5.320;2023-03-01T14:25:20;5.80;99.90
25192;DHT22;13143;50.924;5.320;2023-03-01T14:27:55;5.80;99.90
25192;DHT22;13143;50.924;5.320;2023-03-01T14:30:24;5.80;99.90
25192;DHT22;13143;50.924;5.320;2023-03-01T14:32:56;5.80;99.90
25192;DHT22;13143;50.924;5.320;2023-03-01T14:35:25;5.90;99.90
25192;DHT22;13143;50.924;5.320;2023-03-01T14:37:51;5.90;99.90
25192;DHT22;13143;50.924;5.320;2023-03-01T14:40:25;5.90;99.90
25192;DHT22;13143;50.924;5.320;2023-03-01T14:42:53;6.00;99.90
25192;DHT22;13143;50.924;5.320;2023-03-01T14:45:20;6.00;99.90
25192;DHT22;13143;50.924;5.320;2023-03-01T14:47:46;6.00;99.90
25192;DHT22;13143;50.924;5.320;2023-03-01T14:50:26;6.00;99.90
25192;DHT22;13143;50.924;5.320;2023-03-01T14:52:54;6.00;99.90
25192;DHT22;13143;50.924;5.320;2023-03-01T14:55:34;6.10;99.90
25192;DHT22;13143;50.924;5.320;2023-03-01T14:58:04;6.10;99.90
25192;DHT22;13143;50.924;5.320;2023-03-01T15:00:32;6.10;99.90
25192;DHT22;13143;50.924;5.320;2023-03-01T15:05:46;6.20;99.90
25192;DHT22;13143;50.924;5.320;2023-03-01T15:08:24;6.20;99.90
25192;DHT22;13143;50.924;5.320;2023-03-01T15:13:32;6.30;99.90
25192;DHT22;13143;50.924;5.320;2023-03-01T15:16:12;6.30;99.90
25192;DHT22;13143;50.924;5.320;2023-03-01T15:18:48;6.30;99.90
25192;DHT22;13143;50.924;5.320;2023-03-01T15:21:17;6.40;99.90
25192;DHT22;13143;50.924;5.320;2023-03-01T15:23:49;6.40;99.90
25192;DHT22;13143;50.924;5.320;2023-03-01T15:26:39;6.40;99.90
25192;DHT22;13143;50.924;5.320;2023-03-01T15:29:17;6.40;99.90
25192;DHT22;13143;50.924;5.320;2023-03-01T15:32:03;6.50;99.20
25192;DHT22;13143;50.924;5.320;2023-03-01T15:34:31;6.40;99.20
25192;DHT22;13143;50.924;5.320;2023-03-01T15:36:59;6.50;99.10
25192;DHT22;13143;50.924;5.320;2023-03-01T15:39:40;6.50;99.60
25192;DHT22;13143;50.924;5.320;2023-03-01T15:42:13;6.50;99.80
25192;DHT22;13143;50.924;5.320;2023-03-01T15:48:03;6.50;99.40
25192;DHT22;13143;50.924;5.320;2023-03-01T15:50:34;6.60;98.50
25192;DHT22;13143;50.924;5.320;2023-03-01T15:53:04;6.60;99.00
25192;DHT22;13143;50.924;5.320;2023-03-01T15:55:32;6.60;98.80
25192;DHT22;13143;50.924;5.320;2023-03-01T16:00:26;6.60;98.90
25192;DHT22;13143;50.924;5.320;2023-03-01T16:02:51;6.60;98.90
25192;DHT22;13143;50.924;5.320;2023-03-01T16:05:29;6.60;97.40
25192;DHT22;13143;50.924;5.320;2023-03-01T16:07:56;6.60;97.30
25192;DHT22;13143;50.924;5.320;2023-03-01T16:10:22;6.70;96.50
25192;DHT22;13143;50.924;5.320;2023-03-01T16:12:48;6.70;96.00
25192;DHT22;13143;50.924;5.320;2023-03-01T16:15:20;6.70;96.10
25192;DHT22;13143;50.924;5.320;2023-03-01T16:17:46;6.70;95.20
25192;DHT22;13143;50.924;5.320;2023-03-01T16:20:12;6.80;95.30
25192;DHT22;13143;50.924;5.320;2023-03-01T16:22:43;6.70;95.10
25192;DHT22;13143;50.924;5.320;2023-03-01T16:25:11;6.80;95.20
25192;DHT22;13143;50.924;5.320;2023-03-01T16:27:37;6.70;94.90
25192;DHT22;13143;50.924;5.320;2023-03-01T16:30:05;6.80;94.90
25192;DHT22;13143;50.924;5.320;2023-03-01T16:32:31;6.70;95.40
25192;DHT22;13143;50.924;5.320;2023-03-01T16:34:57;6.80;95.20
25192;DHT22;13143;50.924;5.320;2023-03-01T16:37:22;6.80;95.00
25192;DHT22;13143;50.924;5.320;2023-03-01T16:39:48;6.70;95.30
25192;DHT22;13143;50.924;5.320;2023-03-01T16:42:17;6.80;95.00
25192;DHT22;13143;50.924;5.320;2023-03-01T16:44:43;6.80;94.70
25192;DHT22;13143;50.924;5.320;2023-03-01T16:47:09;6.80;94.80
25192;DHT22;13143;50.924;5.320;2023-03-01T16:49:34;6.80;94.90
25192;DHT22;13143;50.924;5.320;2023-03-01T16:52:00;6.90;94.70
25192;DHT22;13143;50.924;5.320;2023-03-01T16:54:25;6.80;95.00
25192;DHT22;13143;50.924;5.320;2023-03-01T16:56:51;6.80;95.30
25192;DHT22;13143;50.924;5.320;2023-03-01T16:59:17;6.80;95.60
25192;DHT22;13143;50.924;5.320;2023-03-01T17:01:44;6.80;95.70
25192;DHT22;13143;50.924;5.320;2023-03-01T17:04:12;6.80;95.90
25192;DHT22;13143;50.924;5.320;2023-03-01T17:06:38;6.80;96.60
25192;DHT22;13143;50.924;5.320;2023-03-01T17:09:04;6.80;96.20
25192;DHT22;13143;50.924;5.320;2023-03-01T17:11:29;6.80;96.30
25192;DHT22;13143;50.924;5.320;2023-03-01T17:13:55;6.80;96.60
25192;DHT22;13143;50.924;5.320;2023-03-01T17:16:21;6.80;97.00
25192;DHT22;13143;50.924;5.320;2023-03-01T17:18:47;6.80;96.70
25192;DHT22;13143;50.924;5.320;2023-03-01T17:21:14;6.80;96.80
25192;DHT22;13143;50.924;5.320;2023-03-01T17:23:42;6.70;97.20
25192;DHT22;13143;50.924;5.320;2023-03-01T17:26:09;6.80;97.20
25192;DHT22;13143;50.924;5.320;2023-03-01T17:28:36;6.80;97.00
25192;DHT22;13143;50.924;5.320;2023-03-01T17:31:03;6.80;96.90
25192;DHT22;13143;50.924;5.320;2023-03-01T17:33:29;6.80;97.30
25192;DHT22;13143;50.924;5.320;2023-03-01T17:35:55;6.80;96.70
25192;DHT22;13143;50.924;5.320;2023-03-01T17:38:21;6.80;96.80
25192;DHT22;13143;50.924;5.320;2023-03-01T17:40:47;6.80;97.40
25192;DHT22;13143;50.924;5.320;2023-03-01T17:43:14;6.70;96.80
25192;DHT22;13143;50.924;5.320;2023-03-01T17:45:40;6.70;97.40
25192;DHT22;13143;50.924;5.320;2023-03-01T17:48:09;6.70;97.20
25192;DHT22;13143;50.924;5.320;2023-03-01T17:50:36;6.70;96.50
25192;DHT22;13143;50.924;5.320;2023-03-01T17:53:03;6.70;96.70
25192;DHT22;13143;50.924;5.320;2023-03-01T17:55:37;6.70;96.20
25192;DHT22;13143;50.924;5.320;2023-03-01T17:58:04;6.70;96.10
25192;DHT22;13143;50.924;5.320;2023-03-01T18:00:29;6.60;96.80
25192;DHT22;13143;50.924;5.320;2023-03-01T18:02:55;6.60;97.20